sensor_id;sensor_type;location;lat;lon;timestamp;pressure;altitude;pressure_sealevel;temperature;humidity
25664;BME280;13522;50.018;20.014;2023-03-26T00:01:18;97874.84;;;9.16;78.45
25664;BME280;13522;50.018;20.014;2023-03-26T00:04:31;97886.95;;;9.19;78.39
25664;BME280;13522;50.018;20.014;2023-03-26T00:07:43;97888.59;;;9.20;78.31
25664;BME280;13522;50.018;20.014;2023-03-26T00:10:56;97887.70;;;9.11;77.80
25664;BME280;13522;50.018;20.014;2023-03-26T00:14:09;97886.73;;;9.12;78.77
25664;BME280;13522;50.018;20.014;2023-03-26T00:17:22;97887.41;;;9.14;78.71
25664;BME280;13522;50.018;20.014;2023-03-26T00:20:35;97885.11;;;9.19;79.09
25664;BME280;13522;50.018;20.014;2023-03-26T00:23:47;97877.66;;;9.15;79.03
25664;BME280;13522;50.018;20.014;2023-03-26T00:27:00;97881.48;;;9.20;79.65
25664;BME280;13522;50.018;20.014;2023-03-26T00:30:15;97873.22;;;9.23;79.84
25664;BME280;13522;50.018;20.014;2023-03-26T00:33:28;97866.27;;;9.22;80.35
25664;BME280;13522;50.018;20.014;2023-03-26T00:36:43;97863.79;;;9.21;81.46
25664;BME280;13522;50.018;20.014;2023-03-26T00:39:58;97876.48;;;9.17;81.13
25664;BME280;13522;50.018;20.014;2023-03-26T00:43:13;97865.76;;;9.19;80.59
25664;BME280;13522;50.018;20.014;2023-03-26T00:46:29;97862.44;;;9.17;80.80
25664;BME280;13522;50.018;20.014;2023-03-26T00:49:42;97867.36;;;9.12;81.87
25664;BME280;13522;50.018;20.014;2023-03-26T00:52:55;97860.70;;;9.08;81.52
25664;BME280;13522;50.018;20.014;2023-03-26T00:56:09;97845.66;;;9.08;82.24
25664;BME280;13522;50.018;20.014;2023-03-26T00:59:22;97848.47;;;9.07;83.03
25664;BME280;13522;50.018;20.014;2023-03-26T01:02:35;97851.25;;;9.05;82.93
25664;BME280;13522;50.018;20.014;2023-03-26T01:05:51;97854.22;;;9.02;82.72
25664;BME280;13522;50.018;20.014;2023-03-26T01:09:13;97848.59;;;9.05;82.22
25664;BME280;13522;50.018;20.014;2023-03-26T01:12:28;97852.70;;;9.00;82.26
25664;BME280;13522;50.018;20.014;2023-03-26T01:15:42;97845.95;;;9.05;82.16
25664;BME280;13522;50.018;20.014;2023-03-26T01:18:58;97834.33;;;8.98;81.38
25664;BME280;13522;50.018;20.014;2023-03-26T01:22:17;97853.14;;;9.13;81.95
25664;BME280;13522;50.018;20.014;2023-03-26T01:25:34;97851.30;;;9.13;81.65
25664;BME280;13522;50.018;20.014;2023-03-26T01:28:48;97851.00;;;9.16;81.61
25664;BME280;13522;50.018;20.014;2023-03-26T01:32:11;97845.87;;;9.15;81.26
25664;BME280;13522;50.018;20.014;2023-03-26T01:35:33;97850.00;;;9.17;81.06
25664;BME280;13522;50.018;20.014;2023-03-26T01:38:54;97869.22;;;9.19;80.47
25664;BME280;13522;50.018;20.014;2023-03-26T01:42:11;97866.44;;;9.21;81.78
25664;BME280;13522;50.018;20.014;2023-03-26T01:45:27;97862.44;;;9.17;81.63
25664;BME280;13522;50.018;20.014;2023-03-26T01:48:42;97876.70;;;8.98;86.34
25664;BME280;13522;50.018;20.014;2023-03-26T01:51:57;97856.34;;;8.73;90.09
25664;BME280;13522;50.018;20.014;2023-03-26T01:55:10;97851.20;;;8.54;93.72
25664;BME280;13522;50.018;20.014;2023-03-26T01:58:28;97852.73;;;8.39;94.19
25664;BME280;13522;50.018;20.014;2023-03-26T02:01:48;97850.25;;;8.37;94.92
25664;BME280;13522;50.018;20.014;2023-03-26T02:05:07;97846.69;;;8.29;95.76
25664;BME280;13522;50.018;20.014;2023-03-26T02:08:25;97844.38;;;8.16;97.14
25664;BME280;13522;50.018;20.014;2023-03-26T02:11:41;97841.89;;;8.15;97.79
25664;BME280;13522;50.018;20.014;2023-03-26T02:14:55;97815.97;;;8.01;98.54
25664;BME280;13522;50.018;20.014;2023-03-26T02:18:09;97839.84;;;8.09;99.22
25664;BME280;13522;50.018;20.014;2023-03-26T02:21:25;97831.55;;;8.04;99.50
25664;BME280;13522;50.018;20.014;2023-03-26T02:24:39;97831.02;;;8.00;99.60
25664;BME280;13522;50.018;20.014;2023-03-26T02:27:53;97836.83;;;8.04;99.88
25664;BME280;13522;50.018;20.014;2023-03-26T02:31:06;97829.58;;;8.06;99.78
25664;BME280;13522;50.018;20.014;2023-03-26T02:34:19;97827.91;;;8.05;99.49
25664;BME280;13522;50.018;20.014;2023-03-26T02:37:32;97832.83;;;8.00;100.00
25664;BME280;13522;50.018;20.014;2023-03-26T02:40:49;97837.19;;;7.91;100.00
25664;BME280;13522;50.018;20.014;2023-03-26T02:44:04;97838.87;;;7.92;100.00
25664;BME280;13522;50.018;20.014;2023-03-26T02:47:35;97838.31;;;7.88;100.00
25664;BME280;13522;50.018;20.014;2023-03-26T02:50:56;97834.39;;;7.93;100.00
25664;BME280;13522;50.018;20.014;2023-03-26T02:54:12;97834.39;;;7.93;100.00
25664;BME280;13522;50.018;20.014;2023-03-26T02:57:25;97835.16;;;8.03;98.89
25664;BME280;13522;50.018;20.014;2023-03-26T03:00:52;97833.88;;;8.07;98.89
25664;BME280;13522;50.018;20.014;2023-03-26T03:04:09;97831.47;;;8.13;98.38
25664;BME280;13522;50.018;20.014;2023-03-26T03:07:23;97825.34;;;8.13;99.20
25664;BME280;13522;50.018;20.014;2023-03-26T03:10:37;97840.09;;;8.15;98.80
25664;BME280;13522;50.018;20.014;2023-03-26T03:13:54;97830.70;;;8.21;98.50
25664;BME280;13522;50.018;20.014;2023-03-26T03:17:08;97837.68;;;8.22;97.64
25664;BME280;13522;50.018;20.014;2023-03-26T03:20:20;97834.35;;;8.20;96.99
25664;BME280;13522;50.018;20.014;2023-03-26T03:23:35;97831.03;;;8.18;96.73
25664;BME280;13522;50.018;20.014;2023-03-26T03:26:49;97836.84;;;8.21;96.91
25664;BME280;13522;50.018;20.014;2023-03-26T03:30:15;97827.49;;;8.27;95.31
25664;BME280;13522;50.018;20.014;2023-03-26T03:33:36;97824.69;;;8.28;94.75
25664;BME280;13522;50.018;20.014;2023-03-26T03:36:48;97832.50;;;8.30;94.11
25664;BME280;13522;50.018;20.014;2023-03-26T03:40:08;97840.27;;;8.31;94.61
25664;BME280;13522;50.018;20.014;2023-03-26T03:43:21;97825.24;;;8.32;93.98
25664;BME280;13522;50.018;20.014;2023-03-26T03:46:37;97834.83;;;8.33;93.52
25664;BME280;13522;50.018;20.014;2023-03-26T03:49:49;97836.86;;;8.39;92.97
25664;BME280;13522;50.018;20.014;2023-03-26T03:53:02;97826.80;;;8.42;92.25
25664;BME280;13522;50.018;20.014;2023-03-26T03:56:15;97827.03;;;8.49;91.86
25664;BME280;13522;50.018;20.014;2023-03-26T03:59:37;97837.30;;;8.52;90.47
25664;BME280;13522;50.018;20.014;2023-03-26T04:02:52;97836.00;;;8.56;90.01
25664;BME280;13522;50.018;20.014;2023-03-26T04:06:06;97825.80;;;8.61;89.23
25664;BME280;13522;50.018;20.014;2023-03-26T04:09:22;97831.61;;;8.64;88.91
25664;BME280;13522;50.018;20.014;2023-03-26T04:12:36;97833.42;;;8.64;88.77
25664;BME280;13522;50.018;20.014;2023-03-26T04:15:50;97836.39;;;8.61;89.89
25664;BME280;13522;50.018;20.014;2023-03-26T04:19:03;97832.39;;;8.57;91.02
25664;BME280;13522;50.018;20.014;2023-03-26T04:22:16;97836.68;;;8.58;90.72
25664;BME280;13522;50.018;20.014;2023-03-26T04:25:30;97825.80;;;8.61;91.05
25664;BME280;13522;50.018;20.014;2023-03-26T04:28:51;97818.83;;;8.60;90.95
25664;BME280;13522;50.018;20.014;2023-03-26T04:32:07;97821.35;;;8.61;91.68
25664;BME280;13522;50.018;20.014;2023-03-26T04:35:24;97814.90;;;8.64;91.34
25664;BME280;13522;50.018;20.014;2023-03-26T04:38:41;97812.92;;;8.66;91.09
25664;BME280;13522;50.018;20.014;2023-03-26T04:41:58;97810.44;;;8.64;91.23
25664;BME280;13522;50.018;20.014;2023-03-26T04:45:14;97809.92;;;8.61;90.49
25664;BME280;13522;50.018;20.014;2023-03-26T04:48:30;97805.77;;;8.58;90.04
25664;BME280;13522;50.018;20.014;2023-03-26T04:51:46;97799.63;;;8.58;90.37
25664;BME280;13522;50.018;20.014;2023-03-26T04:55:15;97794.05;;;8.61;89.48
25664;BME280;13522;50.018;20.014;2023-03-26T04:58:32;97809.77;;;8.62;88.95
25664;BME280;13522;50.018;20.014;2023-03-26T05:01:45;97800.37;;;8.68;88.44
25664;BME280;13522;50.018;20.014;2023-03-26T05:04:59;97806.05;;;8.73;88.54
25664;BME280;13522;50.018;20.014;2023-03-26T05:08:12;97795.91;;;8.68;89.69
25664;BME280;13522;50.018;20.014;2023-03-26T05:11:25;97811.57;;;8.62;89.62
25664;BME280;13522;50.018;20.014;2023-03-26T05:14:38;97800.70;;;8.65;90.44
25664;BME280;13522;50.018;20.014;2023-03-26T05:17:52;97802.15;;;8.59;89.75
25664;BME280;13522;50.018;20.014;2023-03-26T05:21:10;97803.34;;;8.65;90.54
25664;BME280;13522;50.018;20.014;2023-03-26T05:24:22;97799.86;;;8.64;90.36
25664;BME280;13522;50.018;20.014;2023-03-26T05:27:35;97796.08;;;8.67;89.99
25664;BME280;13522;50.018;20.014;2023-03-26T05:30:47;97796.75;;;8.69;91.11
25664;BME280;13522;50.018;20.014;2023-03-26T05:34:02;97791.65;;;8.75;89.94
25664;BME280;13522;50.018;20.014;2023-03-26T05:37:14;97797.10;;;8.74;91.10
25664;BME280;13522;50.018;20.014;2023-03-26T05:40:30;97796.27;;;8.73;90.75
25664;BME280;13522;50.018;20.014;2023-03-26T05:43:44;97797.27;;;8.72;90.59
25664;BME280;13522;50.018;20.014;2023-03-26T05:46:58;97798.16;;;8.81;90.66
25664;BME280;13522;50.018;20.014;2023-03-26T05:50:12;97794.56;;;8.90;90.14
25664;BME280;13522;50.018;20.014;2023-03-26T05:53:26;97802.61;;;9.06;89.18
25664;BME280;13522;50.018;20.014;2023-03-26T05:56:54;97797.35;;;9.14;89.43
25664;BME280;13522;50.018;20.014;2023-03-26T06:00:25;97795.45;;;9.32;88.09
25664;BME280;13522;50.018;20.014;2023-03-26T06:03:40;97798.45;;;9.37;87.09
25664;BME280;13522;50.018;20.014;2023-03-26T06:06:55;97798.27;;;9.89;86.03
25664;BME280;13522;50.018;20.014;2023-03-26T06:10:09;97798.30;;;9.97;84.70
25664;BME280;13522;50.018;20.014;2023-03-26T06:13:24;97797.47;;;9.88;85.34
25664;BME280;13522;50.018;20.014;2023-03-26T06:16:37;97808.50;;;9.68;84.28
25664;BME280;13522;50.018;20.014;2023-03-26T06:19:51;97796.27;;;9.83;85.01
25664;BME280;13522;50.018;20.014;2023-03-26T06:23:05;97799.27;;;9.80;84.67
25664;BME280;13522;50.018;20.014;2023-03-26T06:26:26;97802.75;;;9.80;84.30
25664;BME280;13522;50.018;20.014;2023-03-26T06:29:41;97802.56;;;9.74;83.81
25664;BME280;13522;50.018;20.014;2023-03-26T06:33:11;97800.75;;;9.74;84.44
25664;BME280;13522;50.018;20.014;2023-03-26T06:36:26;97807.50;;;9.69;83.90
25664;BME280;13522;50.018;20.014;2023-03-26T06:39:38;97796.92;;;9.77;83.72
25664;BME280;13522;50.018;20.014;2023-03-26T06:42:55;97806.42;;;9.95;83.20
25664;BME280;13522;50.018;20.014;2023-03-26T06:46:28;97796.05;;;10.10;81.59
25664;BME280;13522;50.018;20.014;2023-03-26T06:49:55;97800.64;;;10.00;80.52
25664;BME280;13522;50.018;20.014;2023-03-26T06:53:19;97797.81;;;10.01;81.43
25664;BME280;13522;50.018;20.014;2023-03-26T06:56:33;97801.36;;;10.10;81.06
25664;BME280;13522;50.018;20.014;2023-03-26T06:59:58;97802.69;;;10.14;79.21
25664;BME280;13522;50.018;20.014;2023-03-26T07:03:25;97801.02;;;10.21;77.68
25664;BME280;13522;50.018;20.014;2023-03-26T07:06:52;97803.50;;;10.22;77.93
25664;BME280;13522;50.018;20.014;2023-03-26T07:10:24;97800.53;;;10.25;77.60
25664;BME280;13522;50.018;20.014;2023-03-26T07:13:42;97791.91;;;10.23;78.40
25664;BME280;13522;50.018;20.014;2023-03-26T07:17:12;97803.02;;;10.35;77.57
25664;BME280;13522;50.018;20.014;2023-03-26T07:20:34;97803.69;;;10.37;75.98
25664;BME280;13522;50.018;20.014;2023-03-26T07:23:49;97808.52;;;10.41;76.46
25664;BME280;13522;50.018;20.014;2023-03-26T07:27:37;97800.70;;;10.56;77.14
25664;BME280;13522;50.018;20.014;2023-03-26T07:31:02;97798.04;;;10.56;76.14
25664;BME280;13522;50.018;20.014;2023-03-26T07:34:45;97795.06;;;10.67;76.17
25664;BME280;13522;50.018;20.014;2023-03-26T07:38:32;97782.65;;;11.61;74.33
25664;BME280;13522;50.018;20.014;2023-03-26T07:42:12;97776.85;;;12.79;68.05
25664;BME280;13522;50.018;20.014;2023-03-26T07:45:42;97764.78;;;13.20;65.96
25664;BME280;13522;50.018;20.014;2023-03-26T07:49:09;97768.30;;;13.71;63.62
25664;BME280;13522;50.018;20.014;2023-03-26T07:52:26;97760.66;;;14.39;62.04
25664;BME280;13522;50.018;20.014;2023-03-26T07:55:51;97748.05;;;14.82;59.96
25664;BME280;13522;50.018;20.014;2023-03-26T07:59:26;97741.94;;;15.22;58.50
25664;BME280;13522;50.018;20.014;2023-03-26T08:07:07;97750.94;;;14.32;59.32
25664;BME280;13522;50.018;20.014;2023-03-26T08:10:46;97746.26;;;14.19;59.40
25664;BME280;13522;50.018;20.014;2023-03-26T08:14:13;97753.10;;;13.86;60.03
25664;BME280;13522;50.018;20.014;2023-03-26T08:17:33;97749.20;;;13.88;59.64
25664;BME280;13522;50.018;20.014;2023-03-26T08:20:52;97744.56;;;14.33;59.39
25664;BME280;13522;50.018;20.014;2023-03-26T08:24:10;97738.68;;;14.65;58.57
25664;BME280;13522;50.018;20.014;2023-03-26T08:27:31;97742.95;;;15.21;57.15
25664;BME280;13522;50.018;20.014;2023-03-26T08:30:47;97741.90;;;15.16;56.45
25664;BME280;13522;50.018;20.014;2023-03-26T08:34:00;97734.06;;;14.10;58.06
25664;BME280;13522;50.018;20.014;2023-03-26T08:37:13;97757.13;;;13.02;61.75
25664;BME280;13522;50.018;20.014;2023-03-26T08:40:39;97760.30;;;12.69;63.07
25664;BME280;13522;50.018;20.014;2023-03-26T08:55:52;97760.51;;;12.45;63.80
25664;BME280;13522;50.018;20.014;2023-03-26T08:59:21;97767.50;;;12.46;63.52
25664;BME280;13522;50.018;20.014;2023-03-26T09:03:11;97750.50;;;12.47;62.30
25664;BME280;13522;50.018;20.014;2023-03-26T09:07:15;97748.15;;;13.33;60.17
25664;BME280;13522;50.018;20.014;2023-03-26T09:22:35;97710.63;;;17.66;47.25
25664;BME280;13522;50.018;20.014;2023-03-26T09:26:15;97713.33;;;17.60;44.29
25664;BME280;13522;50.018;20.014;2023-03-26T09:37:16;97720.69;;;16.15;47.55
25664;BME280;13522;50.018;20.014;2023-03-26T09:40:37;97720.63;;;15.89;48.57
25664;BME280;13522;50.018;20.014;2023-03-26T09:44:22;97715.77;;;15.11;51.17
25664;BME280;13522;50.018;20.014;2023-03-26T09:52:00;97711.81;;;16.02;48.28
25664;BME280;13522;50.018;20.014;2023-03-26T09:55:33;97714.73;;;15.12;50.89
25664;BME280;13522;50.018;20.014;2023-03-26T10:03:11;97721.64;;;13.81;55.25
25664;BME280;13522;50.018;20.014;2023-03-26T10:06:42;97715.69;;;13.65;56.00
25664;BME280;13522;50.018;20.014;2023-03-26T10:10:02;97721.63;;;13.46;57.26
25664;BME280;13522;50.018;20.014;2023-03-26T10:13:24;97719.75;;;13.61;57.23
25664;BME280;13522;50.018;20.014;2023-03-26T10:16:47;97709.27;;;13.59;56.77
25664;BME280;13522;50.018;20.014;2023-03-26T10:20:14;97704.72;;;14.59;55.72
25664;BME280;13522;50.018;20.014;2023-03-26T10:23:49;97701.20;;;15.20;51.39
25664;BME280;13522;50.018;20.014;2023-03-26T10:27:14;97694.46;;;14.62;52.94
25664;BME280;13522;50.018;20.014;2023-03-26T10:30:53;97700.20;;;13.75;54.54
25664;BME280;13522;50.018;20.014;2023-03-26T10:34:42;97695.34;;;13.43;55.69
25664;BME280;13522;50.018;20.014;2023-03-26T10:38:04;97694.30;;;13.58;56.69
25664;BME280;13522;50.018;20.014;2023-03-26T10:41:23;97694.81;;;13.33;56.59
25664;BME280;13522;50.018;20.014;2023-03-26T10:44:52;97701.69;;;13.27;57.67
25664;BME280;13522;50.018;20.014;2023-03-26T10:48:35;97691.80;;;13.07;57.77
25664;BME280;13522;50.018;20.014;2023-03-26T10:51:59;97689.69;;;13.17;57.98
25664;BME280;13522;50.018;20.014;2023-03-26T10:55:18;97689.59;;;13.10;58.43
25664;BME280;13522;50.018;20.014;2023-03-26T10:58:35;97684.70;;;13.14;57.58
25664;BME280;13522;50.018;20.014;2023-03-26T11:01:54;97681.78;;;13.09;57.43
25664;BME280;13522;50.018;20.014;2023-03-26T11:05:22;97681.40;;;13.12;57.93
25664;BME280;13522;50.018;20.014;2023-03-26T11:08:50;97680.18;;;12.99;57.29
25664;BME280;13522;50.018;20.014;2023-03-26T11:12:08;97683.41;;;12.80;57.50
25664;BME280;13522;50.018;20.014;2023-03-26T11:15:28;97675.95;;;12.76;57.37
25664;BME280;13522;50.018;20.014;2023-03-26T11:18:46;97684.80;;;12.91;57.21
25664;BME280;13522;50.018;20.014;2023-03-26T11:22:06;97673.85;;;13.00;56.09
25664;BME280;13522;50.018;20.014;2023-03-26T11:25:33;97674.98;;;13.56;54.73
25664;BME280;13522;50.018;20.014;2023-03-26T11:29:19;97663.98;;;14.85;51.30
25664;BME280;13522;50.018;20.014;2023-03-26T11:32:52;97661.81;;;15.01;51.68
25664;BME280;13522;50.018;20.014;2023-03-26T11:36:11;97662.05;;;14.44;51.57
25664;BME280;13522;50.018;20.014;2023-03-26T11:39:27;97654.33;;;14.28;52.71
25664;BME280;13522;50.018;20.014;2023-03-26T11:42:40;97654.39;;;13.92;53.02
25664;BME280;13522;50.018;20.014;2023-03-26T11:45:53;97659.42;;;13.81;53.73
25664;BME280;13522;50.018;20.014;2023-03-26T11:49:08;97646.34;;;13.86;54.43
25664;BME280;13522;50.018;20.014;2023-03-26T11:52:21;97646.91;;;13.81;54.60
25664;BME280;13522;50.018;20.014;2023-03-26T11:55:34;97646.06;;;13.39;52.57
25664;BME280;13522;50.018;20.014;2023-03-26T11:58:50;97644.67;;;13.43;53.50
25664;BME280;13522;50.018;20.014;2023-03-26T12:02:24;97644.92;;;13.48;54.02
25664;BME280;13522;50.018;20.014;2023-03-26T12:05:46;97642.14;;;13.56;54.00
25664;BME280;13522;50.018;20.014;2023-03-26T12:08:59;97638.39;;;13.50;54.98
25664;BME280;13522;50.018;20.014;2023-03-26T12:12:12;97628.48;;;13.65;55.64
25664;BME280;13522;50.018;20.014;2023-03-26T12:15:25;97623.70;;;14.03;54.89
25664;BME280;13522;50.018;20.014;2023-03-26T12:18:38;97604.88;;;14.11;56.33
25664;BME280;13522;50.018;20.014;2023-03-26T12:21:52;97620.39;;;14.01;53.26
25664;BME280;13522;50.018;20.014;2023-03-26T12:25:19;97617.12;;;13.78;52.45
25664;BME280;13522;50.018;20.014;2023-03-26T12:28:33;97624.98;;;13.65;53.25
25664;BME280;13522;50.018;20.014;2023-03-26T12:32:02;97616.53;;;13.40;53.97
25664;BME280;13522;50.018;20.014;2023-03-26T12:35:18;97625.17;;;13.42;54.79
25664;BME280;13522;50.018;20.014;2023-03-26T12:38:37;97609.61;;;13.46;55.98
25664;BME280;13522;50.018;20.014;2023-03-26T12:41:57;97601.25;;;13.49;55.54
25664;BME280;13522;50.018;20.014;2023-03-26T12:45:14;97599.13;;;13.65;56.93
25664;BME280;13522;50.018;20.014;2023-03-26T12:48:27;97597.54;;;13.71;59.13
25664;BME280;13522;50.018;20.014;2023-03-26T12:51:42;97592.84;;;13.52;58.13
25664;BME280;13522;50.018;20.014;2023-03-26T12:55:02;97594.75;;;13.37;58.82
25664;BME280;13522;50.018;20.014;2023-03-26T12:58:26;97605.03;;;13.40;59.05
25664;BME280;13522;50.018;20.014;2023-03-26T13:01:52;97600.73;;;13.39;59.11
25664;BME280;13522;50.018;20.014;2023-03-26T13:05:26;97599.18;;;13.30;58.66
25664;BME280;13522;50.018;20.014;2023-03-26T13:09:00;97595.80;;;13.21;56.94
25664;BME280;13522;50.018;20.014;2023-03-26T13:12:28;97582.96;;;13.94;55.84
25664;BME280;13522;50.018;20.014;2023-03-26T13:15:49;97580.70;;;14.19;54.63
25664;BME280;13522;50.018;20.014;2023-03-26T13:19:07;97560.97;;;14.20;55.28
25664;BME280;13522;50.018;20.014;2023-03-26T13:22:25;97558.63;;;14.04;56.14
25664;BME280;13522;50.018;20.014;2023-03-26T13:25:45;97559.48;;;13.83;55.98
25664;BME280;13522;50.018;20.014;2023-03-26T13:29:04;97561.36;;;13.41;56.93
25664;BME280;13522;50.018;20.014;2023-03-26T13:32:21;97560.97;;;13.23;57.78
25664;BME280;13522;50.018;20.014;2023-03-26T13:35:42;97558.47;;;13.21;57.83
25664;BME280;13522;50.018;20.014;2023-03-26T13:39:01;97543.18;;;13.30;57.48
25664;BME280;13522;50.018;20.014;2023-03-26T13:42:39;97537.70;;;13.80;55.61
25664;BME280;13522;50.018;20.014;2023-03-26T13:46:01;97536.03;;;13.79;55.02
25664;BME280;13522;50.018;20.014;2023-03-26T13:49:26;97523.52;;;13.79;54.54
25664;BME280;13522;50.018;20.014;2023-03-26T13:52:42;97531.23;;;13.68;54.39
25664;BME280;13522;50.018;20.014;2023-03-26T13:55:58;97526.47;;;13.63;54.57
25664;BME280;13522;50.018;20.014;2023-03-26T13:59:13;97519.21;;;14.06;54.23
25664;BME280;13522;50.018;20.014;2023-03-26T14:02:32;97513.09;;;14.46;52.76
25664;BME280;13522;50.018;20.014;2023-03-26T14:05:49;97515.39;;;14.56;51.84
25664;BME280;13522;50.018;20.014;2023-03-26T14:09:08;97510.33;;;14.67;51.73
25664;BME280;13522;50.018;20.014;2023-03-26T14:12:28;97506.30;;;14.91;51.76
25664;BME280;13522;50.018;20.014;2023-03-26T14:15:54;97508.45;;;14.61;51.18
25664;BME280;13522;50.018;20.014;2023-03-26T14:19:21;97514.28;;;14.37;51.84
25664;BME280;13522;50.018;20.014;2023-03-26T14:22:42;97512.84;;;14.07;52.53
25664;BME280;13522;50.018;20.014;2023-03-26T14:26:24;97510.16;;;14.07;53.16
25664;BME280;13522;50.018;20.014;2023-03-26T14:29:47;97516.43;;;13.93;54.15
25664;BME280;13522;50.018;20.014;2023-03-26T14:33:16;97518.47;;;13.91;54.31
25664;BME280;13522;50.018;20.014;2023-03-26T14:36:56;97517.61;;;13.84;54.63
25664;BME280;13522;50.018;20.014;2023-03-26T14:40:45;97510.58;;;13.76;54.83
25664;BME280;13522;50.018;20.014;2023-03-26T14:44:32;97511.72;;;13.67;54.15
25664;BME280;13522;50.018;20.014;2023-03-26T14:47:55;97511.78;;;13.74;54.88
25664;BME280;13522;50.018;20.014;2023-03-26T14:51:20;97516.83;;;13.62;53.90
25664;BME280;13522;50.018;20.014;2023-03-26T14:54:39;97513.70;;;13.59;54.05
25664;BME280;13522;50.018;20.014;2023-03-26T15:02:00;97514.80;;;13.43;54.70
25664;BME280;13522;50.018;20.014;2023-03-26T15:10:07;97508.59;;;13.36;55.96
25664;BME280;13522;50.018;20.014;2023-03-26T15:13:57;97506.13;;;13.35;55.67
25664;BME280;13522;50.018;20.014;2023-03-26T15:17:50;97505.72;;;13.38;55.69
25664;BME280;13522;50.018;20.014;2023-03-26T15:21:56;97504.13;;;13.43;55.92
25664;BME280;13522;50.018;20.014;2023-03-26T15:26:02;97494.30;;;13.44;56.01
25664;BME280;13522;50.018;20.014;2023-03-26T15:30:00;97497.39;;;13.47;55.94
25664;BME280;13522;50.018;20.014;2023-03-26T15:34:02;97494.36;;;13.50;55.60
25664;BME280;13522;50.018;20.014;2023-03-26T15:37:57;97490.45;;;13.53;55.77
25664;BME280;13522;50.018;20.014;2023-03-26T15:41:32;97480.82;;;13.52;55.19
25664;BME280;13522;50.018;20.014;2023-03-26T15:44:55;97484.06;;;13.47;55.27
25664;BME280;13522;50.018;20.014;2023-03-26T15:52:22;97489.16;;;13.42;55.56
25664;BME280;13522;50.018;20.014;2023-03-26T15:55:38;97486.06;;;13.39;55.03
25664;BME280;13522;50.018;20.014;2023-03-26T15:59:04;97472.46;;;13.34;54.01
25664;BME280;13522;50.018;20.014;2023-03-26T16:06:00;97471.39;;;13.28;52.79
25664;BME280;13522;50.018;20.014;2023-03-26T16:16:45;97461.09;;;13.25;53.28
25664;BME280;13522;50.018;20.014;2023-03-26T16:20:43;97461.69;;;13.21;53.51
25664;BME280;13522;50.018;20.014;2023-03-26T16:32:45;97454.48;;;13.00;53.95
25664;BME280;13522;50.018;20.014;2023-03-26T16:36:48;97453.20;;;12.96;53.72
25664;BME280;13522;50.018;20.014;2023-03-26T16:44:45;97448.76;;;12.82;54.74
25664;BME280;13522;50.018;20.014;2023-03-26T16:52:45;97464.17;;;12.65;55.35
25664;BME280;13522;50.018;20.014;2023-03-26T16:56:32;97459.95;;;12.56;55.27
25664;BME280;13522;50.018;20.014;2023-03-26T17:00:39;97458.23;;;12.49;56.49
25664;BME280;13522;50.018;20.014;2023-03-26T17:04:12;97450.55;;;12.39;56.16
25664;BME280;13522;50.018;20.014;2023-03-26T17:07:56;97453.12;;;12.33;56.60
25664;BME280;13522;50.018;20.014;2023-03-26T17:11:27;97454.69;;;12.27;56.89
25664;BME280;13522;50.018;20.014;2023-03-26T17:31:23;97445.61;;;11.92;57.15
25664;BME280;13522;50.018;20.014;2023-03-26T17:34:57;97459.68;;;11.86;57.26
25664;BME280;13522;50.018;20.014;2023-03-26T17:42:18;97452.67;;;11.71;57.76
25664;BME280;13522;50.018;20.014;2023-03-26T17:52:21;97454.47;;;11.56;58.61
25664;BME280;13522;50.018;20.014;2023-03-26T17:55:50;97455.84;;;11.52;58.48
25664;BME280;13522;50.018;20.014;2023-03-26T17:59:26;97455.38;;;11.48;59.35
25664;BME280;13522;50.018;20.014;2023-03-26T18:02:56;97458.57;;;11.44;59.06
25664;BME280;13522;50.018;20.014;2023-03-26T18:06:15;97448.31;;;11.41;59.06
25664;BME280;13522;50.018;20.014;2023-03-26T18:09:36;97447.02;;;11.37;59.49
25664;BME280;13522;50.018;20.014;2023-03-26T18:13:19;97459.67;;;11.34;59.31
25664;BME280;13522;50.018;20.014;2023-03-26T18:16:51;97461.67;;;11.32;59.18
25664;BME280;13522;50.018;20.014;2023-03-26T18:20:17;97454.69;;;11.31;59.54
25664;BME280;13522;50.018;20.014;2023-03-26T18:23:35;97459.02;;;11.32;59.51
25664;BME280;13522;50.018;20.014;2023-03-26T18:26:53;97451.84;;;11.33;59.79
25664;BME280;13522;50.018;20.014;2023-03-26T18:30:17;97453.05;;;11.30;60.52
25664;BME280;13522;50.018;20.014;2023-03-26T18:33:37;97450.55;;;11.29;59.00
25664;BME280;13522;50.018;20.014;2023-03-26T18:37:11;97434.98;;;11.26;59.34
25664;BME280;13522;50.018;20.014;2023-03-26T18:40:28;97437.83;;;11.24;58.83
25664;BME280;13522;50.018;20.014;2023-03-26T18:43:42;97441.02;;;11.20;59.83
25664;BME280;13522;50.018;20.014;2023-03-26T18:46:55;97433.42;;;11.17;59.96
25664;BME280;13522;50.018;20.014;2023-03-26T18:50:15;97441.55;;;11.15;60.27
25664;BME280;13522;50.018;20.014;2023-03-26T18:53:33;97427.45;;;11.15;60.20
25664;BME280;13522;50.018;20.014;2023-03-26T18:56:48;97436.88;;;11.17;60.54
25664;BME280;13522;50.018;20.014;2023-03-26T19:00:17;97451.83;;;11.18;60.14
25664;BME280;13522;50.018;20.014;2023-03-26T19:03:33;97452.48;;;11.20;60.41
25664;BME280;13522;50.018;20.014;2023-03-26T19:06:49;97443.48;;;11.21;59.79
25664;BME280;13522;50.018;20.014;2023-03-26T19:10:03;97437.83;;;11.24;60.29
25664;BME280;13522;50.018;20.014;2023-03-26T19:13:18;97434.98;;;11.26;59.80
25664;BME280;13522;50.018;20.014;2023-03-26T19:16:33;97431.15;;;11.28;60.87
25664;BME280;13522;50.018;20.014;2023-03-26T19:19:49;97425.45;;;11.31;60.78
25664;BME280;13522;50.018;20.014;2023-03-26T19:23:03;97426.48;;;11.30;61.14
25664;BME280;13522;50.018;20.014;2023-03-26T19:26:15;97424.81;;;11.29;60.53
25664;BME280;13522;50.018;20.014;2023-03-26T19:29:30;97426.48;;;11.30;61.63
25664;BME280;13522;50.018;20.014;2023-03-26T19:32:52;97425.64;;;11.30;61.55